Map

Track Data

SID SEASON NUMBER BASIN SUBBASIN NAME ISO_TIME NATURE LAT LON WMO_WIND WMO_PRES WMO_AGENCY TRACK_TYPE DIST2LAND LANDFALL IFLAG USA_AGENCY USA_ATCF_ID USA_LAT USA_LON USA_RECORD USA_STATUS USA_WIND USA_PRES USA_SSHS USA_R34_NE USA_R34_SE USA_R34_SW USA_R34_NW USA_R50_NE USA_R50_SE USA_R50_SW USA_R50_NW USA_R64_NE USA_R64_SE USA_R64_SW USA_R64_NW USA_POCI USA_ROCI USA_RMW USA_EYE TOKYO_LAT TOKYO_LON TOKYO_GRADE TOKYO_WIND TOKYO_PRES TOKYO_R50_DIR TOKYO_R50_LONG TOKYO_R50_SHORT TOKYO_R30_DIR TOKYO_R30_LONG TOKYO_R30_SHORT TOKYO_LAND CMA_LAT CMA_LON CMA_CAT CMA_WIND CMA_PRES HKO_LAT HKO_LON HKO_CAT HKO_WIND HKO_PRES NEWDELHI_LAT NEWDELHI_LON NEWDELHI_GRADE NEWDELHI_WIND NEWDELHI_PRES NEWDELHI_CI NEWDELHI_DP NEWDELHI_POCI REUNION_LAT REUNION_LON REUNION_TYPE REUNION_WIND REUNION_PRES REUNION_TNUM REUNION_CI REUNION_RMW REUNION_R34_NE REUNION_R34_SE REUNION_R34_SW REUNION_R34_NW REUNION_R50_NE REUNION_R50_SE REUNION_R50_SW REUNION_R50_NW REUNION_R64_NE REUNION_R64_SE REUNION_R64_SW REUNION_R64_NW BOM_LAT BOM_LON BOM_TYPE BOM_WIND BOM_PRES BOM_TNUM BOM_CI BOM_RMW BOM_R34_NE BOM_R34_SE BOM_R34_SW BOM_R34_NW BOM_R50_NE BOM_R50_SE BOM_R50_SW BOM_R50_NW BOM_R64_NE BOM_R64_SE BOM_R64_SW BOM_R64_NW BOM_ROCI BOM_POCI BOM_EYE BOM_POS_METHOD BOM_PRES_METHOD NADI_LAT NADI_LON NADI_CAT NADI_WIND NADI_PRES WELLINGTON_LAT WELLINGTON_LON WELLINGTON_WIND WELLINGTON_PRES DS824_LAT DS824_LON DS824_STAGE DS824_WIND DS824_PRES TD9636_LAT TD9636_LON TD9636_STAGE TD9636_WIND TD9636_PRES TD9635_LAT TD9635_LON TD9635_WIND TD9635_PRES TD9635_ROCI NEUMANN_LAT NEUMANN_LON NEUMANN_CLASS NEUMANN_WIND NEUMANN_PRES MLC_LAT MLC_LON MLC_CLASS MLC_WIND MLC_PRES USA_GUST BOM_GUST BOM_GUST_PER REUNION_GUST REUNION_GUST_PER USA_SEAHGT USA_SEARAD_NE USA_SEARAD_SE USA_SEARAD_SW USA_SEARAD_NW STORM_SPEED STORM_DIR
1917246N16116 1917 38 WP MM NOT_NAMED 1917-09-02 22:00:00 NR 16.4000 116.000 main 397 397 __________O___ -1 16.4000 116.000 7 9 254
1917246N16116 1917 38 WP MM NOT_NAMED 1917-09-03 00:00:00 NR 16.3185 115.701 main 428 428 __________P___ -1 16.3185 115.701 7 9 255
1917246N16116 1917 38 WP MM NOT_NAMED 1917-09-03 03:00:00 NR 16.2014 115.247 main 481 481 __________P___ -1 16.2014 115.247 7 9 256
1917246N16116 1917 38 WP MM NOT_NAMED 1917-09-03 06:00:00 NR 16.0988 114.775 main 523 510 __________P___ -1 16.0988 114.775 7 10 259
1917246N16116 1917 38 WP MM NOT_NAMED 1917-09-03 09:00:00 NR 16.0196 114.275 main 510 494 __________P___ -1 16.0196 114.275 7 10 261
1917246N16116 1917 38 WP MM NOT_NAMED 1917-09-03 10:00:00 NR 16.0000 114.100 main 494 462 __________O___ -1 16.0000 114.100 7 10 265
1917246N16116 1917 38 WP MM NOT_NAMED 1917-09-03 12:00:00 NR 15.9721 113.738 main 462 423 __________P___ -1 15.9721 113.738 7 11 267
1917246N16116 1917 38 WP MM NOT_NAMED 1917-09-03 15:00:00 NR 15.9554 113.182 main 423 381 __________P___ -1 15.9554 113.182 7 11 270
1917246N16116 1917 38 WP MM NOT_NAMED 1917-09-03 18:00:00 NR 15.9630 112.640 main 381 349 __________P___ -1 15.9630 112.640 7 10 272
1917246N16116 1917 38 WP MM NOT_NAMED 1917-09-03 21:00:00 NR 15.9885 112.147 main 349 342 __________P___ -1 15.9885 112.147 7 9 273
1917246N16116 1917 38 WP MM NOT_NAMED 1917-09-03 22:00:00 NR 16.0000 112.000 main 342 323 __________O___ -1 16.0000 112.000 7 7 274
1917246N16116 1917 38 WP MM NOT_NAMED 1917-09-04 00:00:00 NR 16.0103 111.790 main 323 292 __________P___ -1 16.0103 111.790 7 5 275
1917246N16116 1917 38 WP MM NOT_NAMED 1917-09-04 03:00:00 NR 16.0387 111.533 main 292 276 __________P___ -1 16.0387 111.533 7 5 279
1917246N16116 1917 38 WP MM NOT_NAMED 1917-09-04 06:00:00 NR 16.0887 111.277 main 276 241 __________P___ -1 16.0887 111.277 7 6 283
1917246N16116 1917 38 WP MM NOT_NAMED 1917-09-04 09:00:00 NR 16.1667 110.942 main 241 232 __________P___ -1 16.1667 110.942 7 7 284
1917246N16116 1917 38 WP MM NOT_NAMED 1917-09-04 10:00:00 NR 16.2000 110.800 main 232 210 __________O___ -1 16.2000 110.800 3 10 283
1917246N16116 1917 38 WP MM NOT_NAMED 1917-09-04 12:00:00 NR 16.2779 110.458 main 210 162 __________P___ -1 16.2779 110.458 3 12 283
1917246N16116 1917 38 WP MM NOT_NAMED 1917-09-04 15:00:00 NR 16.4178 109.822 main 162 108 __________P___ -1 16.4178 109.822 3 14 283
1917246N16116 1917 38 WP MM NOT_NAMED 1917-09-04 18:00:00 NR 16.5764 109.079 main 108 59 __________P___ -1 16.5764 109.079 3 15 282
1917246N16116 1917 38 WP MM NOT_NAMED 1917-09-04 21:00:00 NR 16.7438 108.274 main 59 48 __________P___ -1 16.7438 108.274 3 16 282
1917246N16116 1917 38 WP MM NOT_NAMED 1917-09-04 22:00:00 NR 16.8000 108.000 main 48 __________O___ -1 16.8000 108.000 4 16 282

Digital Typhoon Data and Search

About IBTrACS Database

This database is a web-friendly format of International Best Track Archive for Climate Stewardship (IBTrACS), a global best track data archive curated by NOAA dating back to 1842.

Updated: 2021-12-06